createdAt,value
2019-05-02T00:00:35.351Z,54.80
2019-05-02T00:03:05.769Z,57.77
2019-05-02T00:05:35.739Z,59.33
2019-05-02T00:08:05.122Z,56.87
2019-05-02T00:10:38.225Z,58.13
2019-05-02T00:13:08.489Z,55.87
2019-05-02T00:15:39.105Z,57.20
2019-05-02T00:18:09.530Z,58.57
2019-05-02T00:20:41.629Z,56.67
2019-05-02T00:23:12.713Z,55.23
2019-05-02T00:25:47.315Z,57.90
2019-05-02T00:28:15.801Z,56.77
2019-05-02T00:30:45.535Z,58.43
2019-05-02T00:33:15.075Z,56.30
2019-05-02T00:35:46.233Z,55.27
2019-05-02T00:38:15.538Z,53.37
2019-05-02T00:40:47.496Z,52.97
2019-05-02T00:43:16.881Z,51.43
2019-05-02T00:45:46.614Z,54.17
2019-05-02T00:48:23.125Z,51.57
2019-05-02T00:50:52.991Z,54.77
2019-05-02T00:53:22.382Z,51.47
2019-05-02T00:55:51.740Z,51.07
2019-05-02T00:58:21.047Z,49.23
2019-05-02T01:00:53.126Z,48.63
2019-05-02T01:03:22.841Z,52.17
2019-05-02T01:05:52.151Z,54.17
2019-05-02T01:08:21.467Z,48.23
2019-05-02T01:10:52.189Z,55.17
2019-05-02T01:13:21.942Z,52.00
2019-05-02T01:15:51.283Z,51.57
2019-05-02T01:18:22.288Z,52.30
2019-05-02T01:20:58.173Z,52.47
2019-05-02T01:23:27.736Z,51.50
2019-05-02T01:25:57.462Z,54.47
2019-05-02T01:28:31.111Z,54.23
2019-05-02T01:31:05.099Z,53.00
2019-05-02T01:33:44.973Z,50.87
2019-05-02T01:36:18.449Z,51.23
2019-05-02T01:38:49.705Z,51.90
2019-05-02T01:41:19.063Z,49.53
2019-05-02T01:43:48.422Z,51.90
2019-05-02T01:46:22.213Z,52.00
2019-05-02T01:48:48.732Z,54.00
2019-05-02T01:51:18.039Z,52.57
2019-05-02T01:53:47.443Z,50.80
2019-05-02T01:56:17.013Z,53.87
2019-05-02T01:58:46.406Z,54.33
2019-05-02T02:01:20.893Z,54.97
2019-05-02T02:03:49.659Z,55.27
2019-05-02T02:06:19.179Z,54.90
2019-05-02T02:08:48.585Z,50.67
2019-05-02T02:11:18.347Z,55.57
2019-05-02T02:13:48.291Z,51.27
2019-05-02T02:16:17.869Z,52.00
2019-05-02T02:18:51.991Z,50.50
2019-05-02T02:21:25.518Z,48.30
2019-05-02T02:24:02.157Z,52.47
2019-05-02T02:26:31.453Z,54.00
2019-05-02T02:29:07.702Z,52.67
2019-05-02T02:31:39.792Z,49.70
2019-05-02T02:34:11.187Z,51.70
2019-05-02T02:36:40.573Z,54.00
2019-05-02T02:39:14.368Z,55.00
2019-05-02T02:41:45.442Z,56.03
2019-05-02T02:44:16.356Z,54.87
2019-05-02T02:46:48.192Z,56.70
2019-05-02T02:49:24.180Z,53.03
2019-05-02T02:51:51.532Z,52.93
2019-05-02T02:54:21.052Z,57.93
2019-05-02T02:56:52.982Z,56.00
2019-05-02T02:59:26.141Z,50.03
2019-05-02T03:01:53.360Z,52.30
2019-05-02T03:04:22.688Z,49.23
2019-05-02T03:06:54.979Z,51.93
2019-05-02T03:09:26.813Z,53.27
2019-05-02T03:12:12.988Z,50.27
2019-05-02T03:14:47.095Z,50.27
2019-05-02T03:17:20.572Z,52.87
2019-05-02T03:19:46.234Z,49.10
2019-05-02T03:22:15.596Z,54.40
2019-05-02T03:24:46.749Z,52.23
2019-05-02T03:27:16.634Z,52.33
2019-05-02T03:29:46.015Z,54.17
2019-05-02T03:32:31.428Z,53.50
2019-05-02T03:34:52.812Z,54.87
2019-05-02T03:37:18.599Z,54.37
2019-05-02T03:39:56.537Z,50.93
2019-05-02T03:42:19.930Z,52.57
2019-05-02T03:44:55.782Z,53.90
2019-05-02T03:47:20.896Z,54.10
2019-05-02T03:49:52.335Z,57.43
2019-05-02T03:52:22.025Z,54.60
2019-05-02T03:54:54.565Z,51.43
2019-05-02T03:57:32.404Z,52.10
2019-05-02T03:59:55.158Z,53.53
2019-05-02T04:02:24.909Z,52.43
2019-05-02T04:05:00.005Z,54.73
2019-05-02T04:07:26.745Z,49.37
2019-05-02T04:09:57.691Z,54.37
2019-05-02T04:12:27.129Z,53.37
2019-05-02T04:14:57.481Z,51.80
2019-05-02T04:17:35.283Z,52.13
2019-05-02T04:20:09.668Z,53.77
2019-05-02T04:22:36.276Z,52.57
2019-05-02T04:25:06.682Z,50.67
2019-05-02T04:27:38.414Z,50.30
2019-05-02T04:30:11.400Z,55.00
2019-05-02T04:32:42.787Z,54.47
2019-05-02T04:35:10.003Z,54.20
2019-05-02T04:37:41.180Z,50.50
2019-05-02T04:40:12.303Z,53.50
2019-05-02T04:42:42.114Z,54.23
2019-05-02T04:45:26.393Z,54.50
2019-05-02T04:47:57.429Z,53.80
2019-05-02T04:50:18.564Z,53.47
2019-05-02T04:52:53.900Z,53.67
2019-05-02T04:55:28.179Z,51.90
2019-05-02T04:57:52.318Z,54.67
2019-05-02T05:00:29.049Z,55.93
2019-05-02T05:02:58.482Z,56.37
2019-05-02T05:05:31.029Z,53.57
2019-05-02T05:07:58.894Z,54.33
2019-05-02T05:10:40.212Z,49.40
2019-05-02T05:13:01.843Z,53.87
2019-05-02T05:15:40.155Z,51.63
2019-05-02T05:18:04.541Z,55.43
2019-05-02T05:20:33.703Z,53.63
2019-05-02T05:23:05.747Z,53.50
2019-05-02T05:25:37.954Z,55.20
2019-05-02T05:28:11.038Z,54.40
2019-05-02T05:30:45.421Z,53.77
2019-05-02T05:33:11.388Z,54.60
2019-05-02T05:35:43.355Z,53.17
2019-05-02T05:38:12.082Z,52.90
2019-05-02T05:40:41.514Z,56.07
2019-05-02T05:43:15.441Z,56.40
2019-05-02T05:45:53.418Z,55.10
2019-05-02T05:48:15.831Z,54.97
2019-05-02T05:50:45.148Z,54.50
2019-05-02T05:53:17.190Z,53.87
2019-05-02T05:55:47.231Z,52.73
2019-05-02T05:58:18.614Z,50.67
2019-05-02T06:00:53.691Z,56.97
2019-05-02T06:03:18.426Z,54.00
2019-05-02T06:05:47.828Z,55.00
2019-05-02T06:08:18.448Z,54.27
2019-05-02T06:10:48.364Z,56.30
2019-05-02T06:13:17.771Z,54.70
2019-05-02T06:15:47.146Z,55.80
2019-05-02T06:18:16.460Z,54.20
2019-05-02T06:20:45.820Z,54.97
2019-05-02T06:23:15.204Z,54.80
2019-05-02T06:25:44.507Z,54.70
2019-05-02T06:28:13.903Z,54.17
2019-05-02T06:30:43.430Z,53.33
2019-05-02T06:33:12.845Z,56.47
2019-05-02T06:35:42.256Z,56.10
2019-05-02T06:38:11.634Z,57.17
2019-05-02T06:40:44.605Z,55.80
2019-05-02T06:43:12.149Z,57.07
2019-05-02T06:45:41.635Z,55.23
2019-05-02T06:48:17.176Z,58.03
2019-05-02T06:50:42.070Z,55.17
2019-05-02T06:53:11.616Z,56.43
2019-05-02T06:55:40.996Z,56.43
2019-05-02T06:58:10.422Z,55.57
2019-05-02T07:00:56.075Z,58.53
2019-05-02T07:03:11.674Z,57.90
2019-05-02T07:05:43.794Z,55.67
2019-05-02T07:08:14.251Z,54.10
2019-05-02T07:10:45.072Z,54.50
2019-05-02T07:13:15.247Z,54.03
2019-05-02T07:15:52.469Z,53.67
2019-05-02T07:18:29.334Z,54.77
2019-05-02T07:20:58.662Z,53.20
2019-05-02T07:23:27.960Z,53.27
2019-05-02T07:26:00.143Z,53.37
2019-05-02T07:28:29.524Z,52.13
2019-05-02T07:30:59.362Z,51.93
2019-05-02T07:33:32.449Z,52.40
2019-05-02T07:36:00.261Z,52.93
2019-05-02T07:38:30.879Z,50.97
2019-05-02T07:41:00.164Z,48.93
2019-05-02T07:43:29.524Z,48.40
2019-05-02T07:46:01.602Z,47.37
2019-05-02T07:48:30.900Z,48.27
2019-05-02T07:51:00.778Z,49.27
2019-05-02T07:53:31.831Z,46.63
2019-05-02T07:56:04.873Z,47.37
2019-05-02T07:58:38.438Z,47.87
2019-05-02T08:01:08.152Z,49.93
2019-05-02T08:03:38.876Z,47.03
2019-05-02T08:06:08.322Z,46.57
2019-05-02T08:08:37.619Z,48.97
2019-05-02T08:11:07.264Z,46.13
2019-05-02T08:13:36.608Z,47.00
2019-05-02T08:16:06.097Z,46.87
2019-05-02T08:18:38.456Z,48.07
2019-05-02T08:21:07.932Z,50.43
2019-05-02T08:23:37.356Z,51.53
2019-05-02T08:26:07.830Z,50.87
2019-05-02T08:28:38.852Z,51.13
2019-05-02T08:31:08.334Z,46.30
2019-05-02T08:33:37.753Z,43.67
2019-05-02T08:36:10.004Z,42.40
2019-05-02T08:38:39.405Z,43.70
2019-05-02T08:41:08.825Z,44.50
2019-05-02T08:43:40.306Z,43.63
2019-05-02T08:46:14.001Z,44.10
2019-05-02T08:48:42.007Z,44.30
2019-05-02T08:51:11.416Z,44.00
2019-05-02T08:53:40.807Z,42.27
2019-05-02T08:56:10.090Z,44.23
2019-05-02T08:58:39.405Z,44.33
2019-05-02T09:01:09.147Z,39.57
2019-05-02T09:03:54.856Z,38.87
2019-05-02T09:06:10.818Z,38.77
2019-05-02T09:08:46.143Z,38.13
2019-05-02T09:11:15.785Z,37.73
2019-05-02T09:13:46.072Z,37.53
2019-05-02T09:16:15.545Z,35.37
2019-05-02T09:18:50.983Z,33.17
2019-05-02T09:21:16.098Z,32.63
2019-05-02T09:23:45.578Z,32.57
2019-05-02T09:26:14.962Z,33.53
2019-05-02T09:28:44.365Z,30.43
2019-05-02T09:31:15.694Z,36.57
2019-05-02T09:33:46.871Z,37.63
2019-05-02T09:36:16.158Z,36.93
2019-05-02T09:38:48.726Z,37.13
2019-05-02T09:41:19.331Z,39.40
2019-05-02T09:43:47.662Z,38.23
2019-05-02T09:46:17.066Z,41.13
2019-05-02T09:48:46.452Z,40.77
2019-05-02T09:51:17.522Z,40.70
2019-05-02T09:53:46.979Z,42.90
2019-05-02T09:56:16.278Z,40.73
2019-05-02T09:58:49.022Z,43.97
2019-05-02T10:01:18.883Z,42.60
2019-05-02T10:03:48.300Z,44.57
2019-05-02T10:06:18.307Z,45.73
2019-05-02T10:08:47.796Z,45.13
2019-05-02T10:11:21.731Z,47.80
2019-05-02T10:13:48.198Z,46.50
2019-05-02T10:16:23.499Z,51.30
2019-05-02T10:18:52.506Z,49.30
2019-05-02T10:21:23.321Z,50.27
2019-05-02T10:23:59.092Z,54.87
2019-05-02T10:26:27.234Z,56.30
2019-05-02T10:28:56.647Z,54.53
2019-05-02T10:31:35.728Z,58.27
2019-05-02T10:34:02.237Z,57.83
2019-05-02T10:36:32.872Z,56.73
2019-05-02T10:39:06.604Z,60.70
2019-05-02T10:41:39.336Z,58.13
2019-05-02T10:44:06.922Z,58.13
2019-05-02T10:46:46.832Z,55.27
2019-05-02T10:49:22.528Z,57.40
2019-05-02T10:51:54.147Z,58.50
2019-05-02T10:54:27.865Z,56.67
2019-05-02T10:56:55.245Z,59.87
2019-05-02T10:59:26.137Z,59.03
2019-05-02T11:01:57.067Z,59.83
2019-05-02T11:04:29.411Z,60.77
2019-05-02T11:06:58.977Z,58.90
2019-05-02T11:09:31.900Z,57.73
2019-05-02T11:12:03.007Z,61.47
2019-05-02T11:14:51.674Z,63.90
2019-05-02T11:17:32.325Z,61.93
2019-05-02T11:20:03.515Z,61.27
2019-05-02T11:22:32.974Z,61.57
2019-05-02T11:25:02.331Z,60.17
2019-05-02T11:27:32.879Z,62.80
2019-05-02T11:30:02.833Z,62.43
2019-05-02T11:32:32.743Z,60.10
2019-05-02T11:35:02.998Z,63.03
2019-05-02T11:37:32.948Z,61.60
2019-05-02T11:40:05.888Z,62.07
2019-05-02T11:42:33.547Z,64.83
2019-05-02T11:45:02.914Z,63.57
2019-05-02T11:47:32.925Z,61.03
2019-05-02T11:50:02.580Z,61.67
2019-05-02T11:52:37.186Z,61.17
2019-05-02T11:55:04.392Z,61.10
2019-05-02T11:57:33.849Z,60.50
2019-05-02T12:00:05.171Z,58.53
2019-05-02T12:02:36.427Z,58.77
2019-05-02T12:05:08.203Z,58.50
2019-05-02T12:07:37.622Z,57.50
2019-05-02T12:10:07.837Z,59.20
2019-05-02T12:12:37.232Z,56.67
2019-05-02T12:15:08.963Z,55.27
2019-05-02T12:17:38.323Z,58.33
2019-05-02T12:20:07.915Z,56.57
2019-05-02T12:22:37.326Z,57.30
2019-05-02T12:25:06.827Z,58.00
2019-05-02T12:27:36.266Z,58.50
2019-05-02T12:30:06.559Z,56.73
2019-05-02T12:32:35.927Z,55.70
2019-05-02T12:35:05.797Z,61.60
2019-05-02T12:37:36.675Z,59.03
2019-05-02T12:40:06.690Z,59.60
2019-05-02T12:42:36.032Z,46.73
2019-05-02T12:45:08.322Z,47.70
2019-05-02T12:47:37.717Z,48.07
2019-05-02T12:50:07.633Z,48.73
2019-05-02T12:52:40.219Z,47.93
2019-05-02T12:55:09.606Z,42.23
2019-05-02T12:57:38.967Z,42.77
2019-05-02T13:00:09.169Z,43.87
2019-05-02T13:02:58.972Z,41.73
2019-05-02T13:05:28.304Z,42.50
2019-05-02T13:07:57.715Z,43.83
2019-05-02T13:10:32.720Z,45.07
2019-05-02T13:13:02.798Z,46.67
2019-05-02T13:15:32.926Z,46.03
2019-05-02T13:18:05.593Z,48.20
2019-05-02T13:20:36.625Z,48.93
2019-05-02T13:23:27.453Z,49.67
2019-05-02T13:25:55.210Z,48.97
2019-05-02T13:28:25.723Z,45.07
2019-05-02T13:31:06.757Z,45.97
2019-05-02T13:33:37.855Z,43.73
2019-05-02T13:36:07.147Z,40.83
2019-05-02T13:38:39.247Z,36.23
2019-05-02T13:41:08.671Z,39.50
2019-05-02T13:43:41.795Z,34.70
2019-05-02T13:46:12.659Z,33.70
2019-05-02T13:48:42.851Z,36.40
2019-05-02T13:51:12.452Z,32.93
2019-05-02T13:53:43.459Z,33.90
2019-05-02T13:56:23.906Z,33.33
2019-05-02T13:58:53.209Z,32.40
2019-05-02T14:01:22.884Z,31.30
2019-05-02T14:03:55.538Z,30.57
2019-05-02T14:06:29.719Z,28.33
2019-05-02T14:08:56.035Z,28.60
2019-05-02T14:11:43.452Z,28.13
2019-05-02T14:14:13.039Z,27.23
2019-05-02T14:16:42.412Z,26.03
2019-05-02T14:19:12.587Z,23.30
2019-05-02T14:21:42.281Z,24.20
2019-05-02T14:24:11.903Z,24.00
2019-05-02T14:26:43.277Z,25.30
2019-05-02T14:29:16.122Z,22.17
2019-05-02T14:31:43.575Z,21.63
2019-05-02T14:34:33.037Z,24.00
2019-05-02T14:37:05.311Z,22.57
2019-05-02T14:39:34.747Z,21.53
2019-05-02T14:42:04.482Z,21.20
2019-05-02T14:45:01.305Z,20.20
2019-05-02T14:47:05.079Z,19.00
2019-05-02T14:49:34.447Z,19.33
2019-05-02T14:52:07.070Z,19.53
2019-05-02T14:54:38.013Z,18.40
2019-05-02T14:57:17.180Z,17.93
2019-05-02T14:59:44.572Z,20.00
2019-05-02T15:02:15.687Z,20.10
2019-05-02T15:04:48.757Z,16.67
2019-05-02T15:07:22.922Z,18.43
2019-05-02T15:09:50.063Z,17.53
2019-05-02T15:12:19.628Z,17.57
2019-05-02T15:14:49.239Z,18.47
2019-05-02T15:17:20.147Z,18.20
2019-05-02T15:19:52.500Z,18.77
2019-05-02T15:22:22.833Z,22.17
2019-05-02T15:24:53.973Z,19.60
2019-05-02T15:27:39.104Z,17.63
2019-05-02T15:30:05.223Z,20.37
2019-05-02T15:32:29.963Z,21.07
2019-05-02T15:35:17.607Z,23.60
2019-05-02T15:37:48.238Z,23.90
2019-05-02T15:42:52.225Z,23.40
2019-05-02T15:45:23.820Z,20.27
2019-05-02T15:47:53.090Z,21.13
2019-05-02T15:50:25.470Z,16.47
2019-05-02T15:52:57.379Z,12.93
2019-05-02T15:55:26.114Z,10.97
2019-05-02T15:57:55.422Z,11.57
2019-05-02T16:00:29.787Z,10.53
2019-05-02T16:03:01.569Z,12.60
2019-05-02T16:05:31.921Z,12.37
2019-05-02T16:08:07.822Z,13.43
2019-05-02T16:10:38.379Z,13.97
2019-05-02T16:13:08.566Z,15.10
2019-05-02T16:15:35.221Z,13.30
2019-05-02T16:18:05.329Z,13.93
2019-05-02T16:20:40.480Z,16.57
2019-05-02T16:23:07.537Z,17.40
2019-05-02T16:25:37.184Z,19.57
2019-05-02T16:28:09.279Z,20.37
2019-05-02T16:30:44.142Z,20.97
2019-05-02T16:33:17.351Z,21.17
2019-05-02T16:35:46.321Z,21.90
2019-05-02T16:38:14.372Z,24.73
2019-05-02T16:40:44.482Z,27.30
2019-05-02T16:43:16.322Z,25.30
2019-05-02T16:45:45.756Z,26.23
2019-05-02T16:48:15.160Z,30.23
2019-05-02T16:50:45.034Z,28.23
2019-05-02T16:53:17.133Z,25.73
2019-05-02T16:55:45.634Z,28.07
2019-05-02T16:58:15.056Z,26.63
2019-05-02T17:00:45.612Z,30.60
2019-05-02T17:03:17.269Z,33.23
2019-05-02T17:05:49.454Z,34.50
2019-05-02T17:08:20.190Z,31.37
2019-05-02T17:10:53.638Z,34.10
2019-05-02T17:13:27.391Z,32.20
2019-05-02T17:15:54.002Z,33.80
2019-05-02T17:18:23.480Z,36.23
2019-05-02T17:20:56.676Z,36.97
2019-05-02T17:23:24.744Z,36.90
2019-05-02T17:25:55.516Z,35.57
2019-05-02T17:28:24.824Z,35.00
2019-05-02T17:30:54.270Z,38.83
2019-05-02T17:33:23.606Z,38.87
2019-05-02T17:35:54.276Z,39.13
2019-05-02T17:38:29.059Z,39.97
2019-05-02T17:40:59.288Z,41.07
2019-05-02T17:43:27.794Z,42.87
2019-05-02T17:45:57.179Z,40.87
2019-05-02T17:48:29.416Z,42.27
2019-05-02T17:51:06.392Z,41.63
2019-05-02T17:53:41.483Z,41.60
2019-05-02T17:56:06.846Z,42.53
2019-05-02T17:58:36.214Z,42.90
2019-05-02T18:01:07.324Z,43.73
2019-05-02T18:03:36.643Z,45.80
2019-05-02T18:06:07.455Z,43.77
2019-05-02T18:08:37.096Z,44.27
2019-05-02T18:11:06.390Z,43.27
2019-05-02T18:13:35.690Z,42.23
2019-05-02T18:16:07.673Z,41.97
2019-05-02T18:18:37.623Z,43.07
2019-05-02T18:21:07.206Z,41.80
2019-05-02T18:23:39.653Z,41.33
2019-05-02T18:26:09.030Z,38.63
2019-05-02T18:28:46.926Z,39.80
2019-05-02T18:31:12.205Z,38.87
2019-05-02T18:33:42.543Z,38.03
2019-05-02T18:36:17.484Z,37.03
2019-05-02T18:38:46.627Z,35.13
2019-05-02T18:41:15.936Z,34.10
2019-05-02T18:43:47.864Z,36.47
2019-05-02T18:46:19.736Z,35.90
2019-05-02T18:48:49.255Z,33.53
2019-05-02T18:51:19.166Z,33.80
2019-05-02T18:53:48.515Z,34.27
2019-05-02T18:56:22.208Z,32.00
2019-05-02T18:58:54.562Z,29.07
2019-05-02T19:01:24.024Z,30.43
2019-05-02T19:03:56.408Z,30.60
2019-05-02T19:06:27.923Z,25.70
2019-05-02T19:09:02.009Z,22.83
2019-05-02T19:11:33.750Z,23.50
2019-05-02T19:14:04.942Z,22.23
2019-05-02T19:16:34.554Z,24.43
2019-05-02T19:19:04.020Z,21.43
2019-05-02T19:21:37.830Z,20.50
2019-05-02T19:24:06.907Z,22.00
2019-05-02T19:26:36.269Z,18.47
2019-05-02T19:29:15.644Z,18.43
2019-05-02T19:31:46.092Z,17.50
2019-05-02T19:34:16.722Z,17.20
2019-05-02T19:36:46.443Z,15.70
2019-05-02T19:39:17.342Z,16.60
2019-05-02T19:41:49.371Z,15.90
2019-05-02T19:44:21.438Z,15.97
2019-05-02T19:46:51.816Z,14.97
2019-05-02T19:49:22.418Z,15.27
2019-05-02T19:51:56.333Z,14.93
2019-05-02T19:54:22.821Z,17.83
2019-05-02T19:56:52.507Z,17.13
2019-05-02T19:59:26.350Z,18.70
2019-05-02T20:01:57.038Z,18.40
2019-05-02T20:04:23.898Z,19.10
2019-05-02T20:06:53.316Z,19.27
2019-05-02T20:09:25.247Z,19.30
2019-05-02T20:11:54.550Z,19.50
2019-05-02T20:14:26.778Z,19.50
2019-05-02T20:16:58.698Z,19.70
2019-05-02T20:19:28.647Z,19.37
2019-05-02T20:22:06.393Z,19.57
2019-05-02T20:24:55.346Z,20.40
2019-05-02T20:27:22.568Z,19.60
2019-05-02T20:29:52.229Z,20.47
2019-05-02T20:32:22.070Z,19.63
2019-05-02T20:34:51.602Z,18.83
2019-05-02T20:37:22.074Z,17.80
2019-05-02T20:39:51.604Z,19.47
2019-05-02T20:42:21.001Z,17.83
2019-05-02T20:44:50.472Z,18.23
2019-05-02T20:47:23.151Z,19.53
2019-05-02T20:49:55.060Z,18.77
2019-05-02T20:52:24.536Z,19.63
2019-05-02T20:54:53.941Z,20.57
2019-05-02T20:57:26.319Z,21.47
2019-05-02T20:59:55.713Z,20.13
2019-05-02T21:02:25.141Z,19.00
2019-05-02T21:04:54.563Z,19.47
2019-05-02T21:07:25.608Z,19.30
2019-05-02T21:10:04.000Z,17.43
2019-05-02T21:12:35.203Z,16.83
2019-05-02T21:15:06.107Z,15.53
2019-05-02T21:17:35.568Z,15.40
2019-05-02T21:20:08.390Z,14.57
2019-05-02T21:22:37.769Z,15.27
2019-05-02T21:25:07.759Z,15.33
2019-05-02T21:27:37.157Z,15.83
2019-05-02T21:30:12.342Z,15.93
2019-05-02T21:32:42.854Z,16.50
2019-05-02T21:35:12.635Z,15.70
2019-05-02T21:37:42.457Z,16.73
2019-05-02T21:40:12.084Z,16.87
2019-05-02T21:42:42.494Z,18.17
2019-05-02T21:45:13.236Z,18.97
2019-05-02T21:47:42.879Z,18.00
2019-05-02T21:50:24.395Z,20.47
2019-05-02T21:53:07.351Z,20.10
2019-05-02T21:55:38.399Z,21.53
2019-05-02T21:58:07.881Z,20.17
2019-05-02T22:00:45.754Z,18.97
2019-05-02T22:03:15.715Z,21.23
2019-05-02T22:05:45.215Z,19.33
2019-05-02T22:08:14.607Z,21.03
2019-05-02T22:10:44.079Z,19.93
2019-05-02T22:13:13.649Z,22.03
2019-05-02T22:15:43.039Z,21.77
2019-05-02T22:18:12.447Z,20.50
2019-05-02T22:20:42.800Z,19.53
2019-05-02T22:23:12.244Z,22.07
2019-05-02T22:25:41.975Z,20.93
2019-05-02T22:28:13.051Z,20.23
2019-05-02T22:30:42.933Z,22.13
2019-05-02T22:33:12.409Z,20.93
2019-05-02T22:35:43.382Z,23.83
2019-05-02T22:38:14.506Z,20.40
2019-05-02T22:40:45.544Z,22.10
2019-05-02T22:43:14.941Z,22.27
2019-05-02T22:45:44.344Z,22.03
2019-05-02T22:48:14.323Z,24.07
2019-05-02T22:50:43.738Z,22.50
2019-05-02T22:53:13.997Z,22.90
2019-05-02T22:55:43.538Z,22.00
2019-05-02T22:58:12.945Z,23.17
2019-05-02T23:00:42.367Z,22.67
2019-05-02T23:03:12.562Z,22.10
2019-05-02T23:05:42.221Z,22.93
2019-05-02T23:08:12.567Z,22.57
2019-05-02T23:10:41.975Z,24.20
2019-05-02T23:13:12.987Z,22.00
2019-05-02T23:15:42.717Z,21.47
2019-05-02T23:18:12.269Z,22.03
2019-05-02T23:20:42.192Z,23.23
2019-05-02T23:23:12.486Z,23.13
2019-05-02T23:26:04.441Z,22.70
2019-05-02T23:28:35.477Z,21.00
2019-05-02T23:31:05.029Z,22.27
2019-05-02T23:33:52.303Z,21.43
2019-05-02T23:36:21.777Z,22.40
2019-05-02T23:38:52.228Z,20.70
2019-05-02T23:41:22.098Z,21.40
2019-05-02T23:43:52.425Z,21.40
2019-05-02T23:46:22.573Z,21.13
2019-05-02T23:48:52.635Z,20.80
2019-05-02T23:51:22.634Z,22.60
2019-05-02T23:53:52.780Z,20.97
2019-05-02T23:56:22.367Z,20.20
2019-05-02T23:58:52.087Z,21.17
